createdAt,value
2018-05-17T15:56:12.131Z,15.35
2018-05-17T15:57:20.165Z,15.44
2018-05-17T15:58:28.225Z,15.33
2018-05-17T15:59:36.280Z,15.33
2018-05-17T16:00:44.327Z,15.35
2018-05-17T16:01:52.377Z,15.35
2018-05-17T16:03:00.438Z,15.30
2018-05-17T16:04:08.519Z,15.22
2018-05-17T16:05:16.594Z,15.19
2018-05-17T16:06:24.646Z,15.15
2018-05-17T16:07:32.716Z,15.15
2018-05-17T16:08:40.809Z,15.18
2018-05-17T16:09:48.854Z,15.15
2018-05-17T16:10:56.908Z,15.19
2018-05-17T16:12:04.965Z,15.35
2018-05-17T16:13:13.038Z,15.25
2018-05-17T16:14:21.128Z,15.33
2018-05-17T16:15:29.420Z,15.48
2018-05-17T16:16:37.224Z,15.48
2018-05-17T16:17:45.311Z,15.44
2018-05-17T16:18:53.376Z,15.44
2018-05-17T16:20:01.411Z,15.54
2018-05-17T16:21:09.523Z,15.62
2018-05-17T16:22:18.143Z,15.75
2018-05-17T16:23:26.042Z,15.80
2018-05-17T16:24:33.709Z,15.83
2018-05-17T16:25:41.780Z,15.87
2018-05-17T16:26:49.835Z,15.94
2018-05-17T16:27:57.907Z,15.91
2018-05-17T16:29:06.339Z,16.05
2018-05-17T16:30:14.051Z,16.09
2018-05-17T16:31:22.245Z,16.03
2018-05-17T16:32:30.204Z,16.18
2018-05-17T16:33:38.549Z,16.10
2018-05-17T16:34:46.321Z,16.18
2018-05-17T16:35:54.681Z,16.29
2018-05-17T16:37:02.865Z,16.37
2018-05-17T16:38:10.894Z,16.31
2018-05-17T16:39:18.615Z,16.34
2018-05-17T16:40:27.062Z,16.39
2018-05-17T16:41:34.978Z,16.37
2018-05-17T16:42:42.943Z,16.40
2018-05-17T16:43:50.836Z,16.43
2018-05-17T16:44:59.498Z,16.41
2018-05-17T16:46:07.008Z,16.32
2018-05-17T16:47:15.081Z,16.26
2018-05-17T16:48:23.291Z,16.18
2018-05-17T16:49:31.452Z,16.17
2018-05-17T16:50:39.607Z,16.08
2018-05-17T16:51:47.358Z,16.02
2018-05-17T16:52:55.760Z,16.12
2018-05-17T16:54:05.515Z,16.00
2018-05-17T16:55:11.879Z,15.91
2018-05-17T16:56:19.901Z,15.84
2018-05-17T16:57:27.708Z,15.84
2018-05-17T16:58:36.180Z,15.78
2018-05-17T16:59:43.845Z,15.84
2018-05-17T17:00:52.960Z,15.75
2018-05-17T17:02:00.274Z,15.73
2018-05-17T17:03:08.168Z,15.66
2018-05-17T17:04:16.136Z,15.54
2018-05-17T17:05:24.513Z,15.62
2018-05-17T17:06:32.585Z,15.52
2018-05-17T17:07:40.869Z,15.51
2018-05-17T17:08:48.461Z,15.48
2018-05-17T17:09:56.607Z,15.48
2018-05-17T17:11:04.801Z,15.51
2018-05-17T17:12:12.605Z,15.45
2018-05-17T17:13:20.653Z,15.47
2018-05-17T17:14:28.747Z,15.47
2018-05-17T17:15:36.828Z,15.32
2018-05-17T17:16:44.886Z,15.37
2018-05-17T17:17:52.978Z,15.30
2018-05-17T17:19:01.197Z,15.23
2018-05-17T17:20:09.163Z,15.14
2018-05-17T17:21:17.156Z,15.19
2018-05-17T17:22:25.215Z,15.22
2018-05-17T17:23:33.295Z,15.26
2018-05-17T17:24:41.346Z,15.27
2018-05-17T17:25:49.426Z,15.23
2018-05-17T17:26:57.720Z,15.29
2018-05-17T17:28:05.573Z,15.32
2018-05-17T17:29:13.649Z,15.37
2018-05-17T17:30:22.109Z,15.29
2018-05-17T17:31:29.769Z,15.32
2018-05-17T17:32:37.853Z,15.22
2018-05-17T17:33:45.900Z,15.22
2018-05-17T17:34:53.978Z,15.11
2018-05-17T17:36:02.280Z,15.11
2018-05-17T17:37:10.120Z,15.05
2018-05-17T17:38:18.184Z,15.08
2018-05-17T17:39:26.347Z,15.02
2018-05-17T17:40:34.316Z,15.02
2018-05-17T17:41:42.413Z,15.10
2018-05-17T17:42:50.761Z,15.07
2018-05-17T17:43:58.828Z,15.12
2018-05-17T17:45:06.606Z,15.08
2018-05-17T17:46:14.690Z,15.14
2018-05-17T17:47:22.733Z,15.12
2018-05-17T17:48:30.788Z,15.10
2018-05-17T17:49:39.045Z,15.10
2018-05-17T17:50:46.929Z,14.97
2018-05-17T17:51:55.015Z,14.97
2018-05-17T17:53:03.067Z,15.10
2018-05-17T17:54:11.107Z,15.11
2018-05-17T17:55:19.235Z,14.99
2018-05-17T17:56:27.266Z,14.99
2018-05-17T17:57:35.342Z,15.04
2018-05-17T17:58:43.405Z,14.90
2018-05-17T17:59:51.882Z,14.97
2018-05-17T18:00:59.545Z,14.94
2018-05-17T18:02:07.604Z,14.87
2018-05-17T18:03:15.681Z,14.81
2018-05-17T18:04:23.760Z,14.90
2018-05-17T18:05:31.922Z,14.71
2018-05-17T18:06:39.919Z,14.78
2018-05-17T18:07:48.368Z,14.66
2018-05-17T18:08:56.039Z,14.62
2018-05-17T18:10:04.106Z,14.63
2018-05-17T18:11:12.177Z,14.58
2018-05-17T18:12:20.250Z,14.62
2018-05-17T18:13:28.309Z,14.56
2018-05-17T18:14:36.372Z,14.49
2018-05-17T18:15:44.443Z,14.43
2018-05-17T18:16:52.510Z,14.41
2018-05-17T18:18:00.560Z,14.37
2018-05-17T18:19:08.635Z,14.28
2018-05-17T18:20:16.700Z,14.25
2018-05-17T18:21:24.781Z,14.26
2018-05-17T18:22:32.853Z,14.19
2018-05-17T18:23:40.884Z,14.05
2018-05-17T18:24:48.998Z,14.03
2018-05-17T18:25:57.054Z,14.04
2018-05-17T18:27:05.192Z,14.00
2018-05-17T18:28:13.197Z,14.04
2018-05-17T18:29:21.222Z,13.86
2018-05-17T18:30:29.311Z,13.91
2018-05-17T18:31:37.389Z,13.78
2018-05-17T18:32:45.509Z,13.68
2018-05-17T18:33:53.580Z,13.73
2018-05-17T18:35:01.586Z,13.68
2018-05-17T18:36:09.667Z,13.61
2018-05-17T18:37:17.709Z,13.57
2018-05-17T18:38:25.779Z,13.54
2018-05-17T18:39:33.857Z,13.57
2018-05-17T18:40:41.913Z,13.45
2018-05-17T18:41:49.986Z,13.39
2018-05-17T18:42:58.053Z,13.26
2018-05-17T18:44:06.131Z,13.37
2018-05-17T18:45:14.201Z,13.27
2018-05-17T18:46:22.253Z,13.30
2018-05-17T18:47:30.323Z,13.20
2018-05-17T18:48:38.405Z,13.24
2018-05-17T18:49:46.457Z,13.30
2018-05-17T18:50:54.521Z,13.13
2018-05-17T18:52:02.590Z,13.12
2018-05-17T18:53:10.635Z,13.06
2018-05-17T18:54:18.716Z,13.03
2018-05-17T18:55:26.792Z,12.87
2018-05-17T18:56:34.861Z,12.87
2018-05-17T18:57:42.920Z,12.86
2018-05-17T18:58:50.982Z,12.95
2018-05-17T18:59:59.060Z,12.91
2018-05-17T19:01:07.118Z,12.90
2018-05-17T19:02:15.235Z,12.93
2018-05-17T19:03:23.249Z,12.91
2018-05-17T19:04:31.298Z,12.93
2018-05-17T19:05:39.388Z,12.95
2018-05-17T19:06:47.455Z,13.01
2018-05-17T19:07:55.522Z,12.99
2018-05-17T19:09:03.585Z,13.06
2018-05-17T19:10:11.654Z,12.94
2018-05-17T19:11:19.712Z,13.06
2018-05-17T19:12:27.794Z,13.05
2018-05-17T19:13:35.857Z,13.06
2018-05-17T19:14:43.924Z,13.01
2018-05-17T19:15:51.992Z,13.03
2018-05-17T19:17:00.035Z,12.98
2018-05-17T19:18:08.119Z,13.02
2018-05-17T19:19:16.191Z,12.94
2018-05-17T19:20:24.279Z,12.93
2018-05-17T19:21:32.337Z,12.98
2018-05-17T19:22:40.379Z,12.90
2018-05-17T19:23:48.440Z,12.88
2018-05-17T19:24:56.528Z,12.90
2018-05-17T19:26:04.576Z,12.94
2018-05-17T19:27:12.665Z,12.93
2018-05-17T19:28:20.681Z,12.98
2018-05-17T19:29:28.795Z,12.99
2018-05-17T19:30:36.827Z,12.91
2018-05-17T19:31:44.908Z,12.81
2018-05-17T19:32:52.968Z,12.90
2018-05-17T19:34:01.234Z,12.91
2018-05-17T19:35:09.115Z,12.91
2018-05-17T19:36:17.170Z,12.95
2018-05-17T19:37:25.287Z,12.87
2018-05-17T19:38:33.294Z,12.84
2018-05-17T19:39:41.365Z,12.84
2018-05-17T19:40:49.425Z,12.81
2018-05-17T19:41:57.513Z,12.88
2018-05-17T19:43:05.560Z,12.83
2018-05-17T19:44:13.625Z,12.84
2018-05-17T19:45:21.760Z,12.83
2018-05-17T19:46:29.803Z,12.80
2018-05-17T19:47:37.815Z,12.83
2018-05-17T19:48:45.908Z,12.84
2018-05-17T19:49:53.980Z,12.69
2018-05-17T19:51:02.014Z,12.68
2018-05-17T19:52:10.100Z,12.62
2018-05-17T19:53:18.148Z,12.58
2018-05-17T19:54:26.229Z,12.51
2018-05-17T19:55:34.280Z,12.39
2018-05-17T19:56:42.380Z,12.30
2018-05-17T19:57:50.408Z,12.33
2018-05-17T19:58:58.484Z,12.20
2018-05-17T20:00:06.555Z,12.18
2018-05-17T20:01:14.628Z,12.12
2018-05-17T20:02:22.674Z,12.07
2018-05-17T20:03:30.731Z,12.05
2018-05-17T20:04:38.813Z,11.99
2018-05-17T20:05:46.891Z,11.93
2018-05-17T20:06:54.938Z,11.89
2018-05-17T20:08:02.996Z,11.95
2018-05-17T20:09:11.047Z,11.89
2018-05-17T20:10:19.123Z,11.96
2018-05-17T20:11:27.293Z,11.97
2018-05-17T20:12:35.278Z,11.89
2018-05-17T20:13:43.343Z,11.89
2018-05-17T20:14:51.402Z,11.85
2018-05-17T20:15:59.454Z,11.80
2018-05-17T20:17:07.515Z,11.77
2018-05-17T20:18:15.589Z,11.74
2018-05-17T20:19:23.649Z,11.70
2018-05-17T20:20:31.735Z,11.67
2018-05-17T20:21:39.797Z,11.68
2018-05-17T20:22:47.842Z,11.62
2018-05-17T20:23:55.912Z,11.62
2018-05-17T20:25:03.973Z,11.70
2018-05-17T20:26:12.046Z,11.71
2018-05-17T20:27:20.105Z,11.63
2018-05-17T20:28:28.169Z,11.60
2018-05-17T20:29:36.735Z,11.59
2018-05-17T20:30:44.307Z,11.58
2018-05-17T20:31:52.385Z,11.52
2018-05-17T20:33:00.400Z,11.58
2018-05-17T20:34:08.496Z,11.41
2018-05-17T20:35:16.545Z,11.52
2018-05-17T20:36:24.634Z,11.45
2018-05-17T20:37:32.685Z,11.43
2018-05-17T20:38:40.721Z,11.51
2018-05-17T20:39:48.814Z,11.53
2018-05-17T20:40:56.876Z,11.59
2018-05-17T20:42:04.941Z,11.58
2018-05-17T20:43:13.004Z,11.59
2018-05-17T20:44:21.041Z,11.56
2018-05-17T20:45:29.127Z,11.59
2018-05-17T20:46:37.203Z,11.56
2018-05-17T20:47:45.244Z,11.58
2018-05-17T20:48:53.717Z,11.55
2018-05-17T20:50:01.385Z,11.49
2018-05-17T20:51:09.454Z,11.49
2018-05-17T20:52:17.527Z,11.38
2018-05-17T20:53:25.593Z,11.44
2018-05-17T20:54:33.646Z,11.34
2018-05-17T20:55:41.709Z,11.31
2018-05-17T20:56:49.788Z,11.27
2018-05-17T20:57:57.841Z,11.22
2018-05-17T20:59:05.920Z,11.19
2018-05-17T21:00:13.985Z,11.13
2018-05-17T21:01:22.024Z,11.13
2018-05-17T21:02:30.097Z,11.13
2018-05-17T21:03:38.175Z,11.12
2018-05-17T21:04:46.215Z,11.13
2018-05-17T21:05:54.287Z,11.16
2018-05-17T21:07:02.475Z,11.12
2018-05-17T21:08:10.419Z,11.08
2018-05-17T21:09:18.484Z,11.05
2018-05-17T21:10:26.549Z,11.08
2018-05-17T21:11:34.605Z,11.10
2018-05-17T21:12:42.764Z,11.15
2018-05-17T21:13:50.719Z,11.15
2018-05-17T21:14:58.807Z,11.16
2018-05-17T21:16:06.870Z,11.20
2018-05-17T21:17:14.939Z,11.18
2018-05-17T21:18:23.011Z,11.22
2018-05-17T21:19:31.057Z,11.26
2018-05-17T21:20:39.154Z,11.19
2018-05-17T21:21:47.200Z,11.18
2018-05-17T21:22:55.256Z,11.31
2018-05-17T21:24:03.330Z,11.22
2018-05-17T21:25:11.375Z,11.23
2018-05-17T21:26:19.459Z,11.22
2018-05-17T21:27:27.509Z,11.23
2018-05-17T21:28:35.589Z,11.08
2018-05-17T21:29:43.623Z,11.16
2018-05-17T21:30:51.712Z,11.13
2018-05-17T21:31:59.783Z,11.08
2018-05-17T21:33:07.821Z,11.07
2018-05-17T21:34:15.900Z,11.05
2018-05-17T21:35:23.964Z,10.98
2018-05-17T21:36:32.021Z,10.95
2018-05-17T21:37:40.091Z,10.95
2018-05-17T21:38:48.147Z,10.92
2018-05-17T21:39:56.222Z,10.77
2018-05-17T21:41:04.294Z,10.83
2018-05-17T21:42:12.349Z,10.90
2018-05-17T21:43:20.399Z,10.87
2018-05-17T21:44:28.490Z,10.72
2018-05-17T21:45:36.543Z,10.75
2018-05-17T21:46:44.609Z,10.68
2018-05-17T21:47:52.668Z,10.62
2018-05-17T21:49:00.724Z,10.62
2018-05-17T21:50:08.801Z,10.48
2018-05-17T21:51:16.863Z,10.45
2018-05-17T21:52:24.923Z,10.31
2018-05-17T21:53:32.987Z,10.25
2018-05-17T21:54:41.057Z,10.27
2018-05-17T21:55:49.118Z,10.15
2018-05-17T21:56:57.177Z,10.15
2018-05-17T21:58:05.248Z,10.12
2018-05-17T21:59:13.308Z,10.13
2018-05-17T22:00:21.357Z,10.09
2018-05-17T22:01:29.428Z,10.10
2018-05-17T22:02:37.489Z,9.97
2018-05-17T22:03:45.574Z,9.99
2018-05-17T22:04:53.639Z,10.05
2018-05-17T22:06:01.684Z,10.06
2018-05-17T22:07:09.755Z,9.91
2018-05-17T22:08:17.818Z,10.00
2018-05-17T22:09:25.878Z,9.97
2018-05-17T22:10:33.943Z,9.94
2018-05-17T22:11:42.018Z,9.90
2018-05-17T22:12:50.064Z,9.87
2018-05-17T22:13:58.140Z,9.85
2018-05-17T22:15:06.201Z,9.81
2018-05-17T22:16:14.256Z,9.77
2018-05-17T22:17:22.319Z,9.73
2018-05-17T22:18:30.379Z,9.76
2018-05-17T22:19:38.441Z,9.76
2018-05-17T22:20:46.520Z,9.77
2018-05-17T22:21:54.576Z,9.80
2018-05-17T22:23:02.637Z,9.74
2018-05-17T22:24:10.665Z,9.76
2018-05-17T22:25:18.757Z,9.80
2018-05-17T22:26:26.828Z,9.77
2018-05-17T22:27:34.891Z,9.69
2018-05-17T22:28:42.949Z,9.70
2018-05-17T22:29:50.984Z,9.70
2018-05-17T22:30:59.131Z,9.63
2018-05-17T22:32:07.135Z,9.73
2018-05-17T22:33:15.188Z,9.73
2018-05-17T22:34:23.269Z,9.64
2018-05-17T22:35:31.305Z,9.54
2018-05-17T22:36:39.393Z,9.58
2018-05-17T22:37:47.462Z,9.56
2018-05-17T22:38:55.514Z,9.48
2018-05-17T22:40:03.592Z,9.54
2018-05-17T22:41:11.659Z,9.45
2018-05-17T22:42:19.712Z,9.39
2018-05-17T22:43:27.777Z,9.40
2018-05-17T22:44:35.840Z,9.33
2018-05-17T22:45:43.913Z,9.34
2018-05-17T22:46:51.961Z,9.31
2018-05-17T22:48:00.038Z,9.34
2018-05-17T22:49:08.095Z,9.31
2018-05-17T22:50:16.162Z,9.21
2018-05-17T22:51:24.223Z,9.24
2018-05-17T22:52:32.287Z,9.18
2018-05-17T22:53:40.339Z,9.13
2018-05-17T22:54:48.406Z,9.18
2018-05-17T22:55:56.469Z,9.16
2018-05-17T22:57:04.585Z,9.13
2018-05-17T22:58:12.594Z,9.12
2018-05-17T22:59:20.639Z,9.11
2018-05-17T23:00:28.729Z,9.08
2018-05-17T23:01:36.784Z,9.09
2018-05-17T23:02:44.855Z,9.02
2018-05-17T23:03:52.910Z,9.08
2018-05-17T23:05:00.945Z,9.05
2018-05-17T23:06:09.059Z,8.95
2018-05-17T23:07:17.103Z,8.99
2018-05-17T23:08:25.161Z,9.02
2018-05-17T23:09:33.216Z,9.00
2018-05-17T23:10:41.247Z,9.00
2018-05-17T23:11:49.351Z,8.97
2018-05-17T23:12:57.406Z,8.99
2018-05-17T23:14:05.478Z,8.97
2018-05-17T23:15:13.540Z,8.82
2018-05-17T23:16:21.602Z,8.92
2018-05-17T23:17:29.672Z,8.82
2018-05-17T23:18:37.737Z,8.79
2018-05-17T23:19:45.851Z,8.69
2018-05-17T23:20:53.860Z,8.71
2018-05-17T23:22:01.919Z,8.71
2018-05-17T23:23:09.977Z,8.68
2018-05-17T23:24:18.048Z,8.61
2018-05-17T23:25:26.111Z,8.66
2018-05-17T23:26:34.156Z,8.63
2018-05-17T23:27:42.238Z,8.63
2018-05-17T23:28:50.306Z,8.61
2018-05-17T23:29:58.346Z,8.77
2018-05-17T23:31:06.405Z,8.72
2018-05-17T23:32:14.477Z,8.68
2018-05-17T23:33:22.540Z,8.75
2018-05-17T23:34:30.585Z,8.64
2018-05-17T23:35:38.702Z,8.72
2018-05-17T23:36:46.739Z,8.78
2018-05-17T23:37:54.795Z,8.78
2018-05-17T23:39:02.868Z,8.78
2018-05-17T23:40:10.908Z,8.79
2018-05-17T23:41:18.994Z,8.79
2018-05-17T23:42:27.054Z,8.89
2018-05-17T23:43:35.125Z,8.89
2018-05-17T23:44:43.204Z,8.95
2018-05-17T23:45:51.213Z,8.96
2018-05-17T23:46:59.309Z,9.02
2018-05-17T23:48:07.368Z,8.97
2018-05-17T23:49:15.423Z,8.99
2018-05-17T23:50:23.493Z,8.93
2018-05-17T23:51:31.565Z,9.00
2018-05-17T23:52:39.615Z,9.15
2018-05-17T23:53:47.653Z,8.99
2018-05-17T23:54:55.742Z,9.03
2018-05-17T23:56:03.801Z,9.09
2018-05-17T23:57:11.877Z,9.18
2018-05-17T23:58:19.940Z,9.16
2018-05-17T23:59:28.003Z,9.18
